sensor_id;sensor_type;location;lat;lon;timestamp;temperature;humidity
22065;DHT22;11197;53.110;8.468;2024-01-27T00:02:00;5.80;99.90
22065;DHT22;11197;53.110;8.468;2024-01-27T00:04:26;5.70;99.90
22065;DHT22;11197;53.110;8.468;2024-01-27T00:06:52;5.70;99.90
22065;DHT22;11197;53.110;8.468;2024-01-27T00:09:17;5.70;99.90
22065;DHT22;11197;53.110;8.468;2024-01-27T00:11:44;5.70;99.90
22065;DHT22;11197;53.110;8.468;2024-01-27T00:14:10;5.70;99.90
22065;DHT22;11197;53.110;8.468;2024-01-27T00:16:35;5.60;99.90
22065;DHT22;11197;53.110;8.468;2024-01-27T00:19:01;5.60;99.90
22065;DHT22;11197;53.110;8.468;2024-01-27T00:21:27;5.60;99.90
22065;DHT22;11197;53.110;8.468;2024-01-27T00:23:53;5.50;99.90
22065;DHT22;11197;53.110;8.468;2024-01-27T00:26:19;5.50;99.90
22065;DHT22;11197;53.110;8.468;2024-01-27T00:28:45;5.60;99.90
22065;DHT22;11197;53.110;8.468;2024-01-27T00:31:11;5.50;99.90
22065;DHT22;11197;53.110;8.468;2024-01-27T00:33:37;5.50;99.90
22065;DHT22;11197;53.110;8.468;2024-01-27T00:36:03;5.50;99.90
22065;DHT22;11197;53.110;8.468;2024-01-27T00:38:29;5.50;99.90
22065;DHT22;11197;53.110;8.468;2024-01-27T00:40:54;5.40;99.90
22065;DHT22;11197;53.110;8.468;2024-01-27T00:43:21;5.50;99.90
22065;DHT22;11197;53.110;8.468;2024-01-27T00:45:46;5.40;99.90
22065;DHT22;11197;53.110;8.468;2024-01-27T00:48:12;5.50;99.90
22065;DHT22;11197;53.110;8.468;2024-01-27T00:50:38;5.40;99.90
22065;DHT22;11197;53.110;8.468;2024-01-27T00:53:04;5.40;99.90
22065;DHT22;11197;53.110;8.468;2024-01-27T00:55:30;5.30;99.90
22065;DHT22;11197;53.110;8.468;2024-01-27T00:57:56;5.30;99.90
22065;DHT22;11197;53.110;8.468;2024-01-27T01:00:22;5.30;99.90
22065;DHT22;11197;53.110;8.468;2024-01-27T01:02:48;5.30;99.90
22065;DHT22;11197;53.110;8.468;2024-01-27T01:05:14;5.20;99.90
22065;DHT22;11197;53.110;8.468;2024-01-27T01:07:40;5.30;99.90
22065;DHT22;11197;53.110;8.468;2024-01-27T01:10:06;5.30;99.90
22065;DHT22;11197;53.110;8.468;2024-01-27T01:12:32;5.30;99.90
22065;DHT22;11197;53.110;8.468;2024-01-27T01:14:58;5.30;99.90
22065;DHT22;11197;53.110;8.468;2024-01-27T01:17:24;5.20;99.90
22065;DHT22;11197;53.110;8.468;2024-01-27T01:19:50;5.20;99.90
22065;DHT22;11197;53.110;8.468;2024-01-27T01:22:16;5.20;99.90
22065;DHT22;11197;53.110;8.468;2024-01-27T01:24:42;5.20;99.90
22065;DHT22;11197;53.110;8.468;2024-01-27T01:27:08;5.20;99.90
22065;DHT22;11197;53.110;8.468;2024-01-27T01:29:33;5.20;99.90
22065;DHT22;11197;53.110;8.468;2024-01-27T01:32:00;5.20;99.90
22065;DHT22;11197;53.110;8.468;2024-01-27T01:34:28;5.20;99.90
22065;DHT22;11197;53.110;8.468;2024-01-27T01:36:54;5.20;99.90
22065;DHT22;11197;53.110;8.468;2024-01-27T01:39:20;5.20;99.90
22065;DHT22;11197;53.110;8.468;2024-01-27T01:41:46;5.10;99.90
22065;DHT22;11197;53.110;8.468;2024-01-27T01:44:11;5.10;99.90
22065;DHT22;11197;53.110;8.468;2024-01-27T01:46:37;5.10;99.90
22065;DHT22;11197;53.110;8.468;2024-01-27T01:49:03;5.20;99.90
22065;DHT22;11197;53.110;8.468;2024-01-27T01:51:30;5.10;99.90
22065;DHT22;11197;53.110;8.468;2024-01-27T01:53:58;5.10;99.90
22065;DHT22;11197;53.110;8.468;2024-01-27T01:56:24;5.10;99.90
22065;DHT22;11197;53.110;8.468;2024-01-27T01:58:50;5.10;99.90
22065;DHT22;11197;53.110;8.468;2024-01-27T02:01:19;5.10;99.90
22065;DHT22;11197;53.110;8.468;2024-01-27T02:06:19;5.10;99.90
22065;DHT22;11197;53.110;8.468;2024-01-27T02:08:45;5.10;99.90
22065;DHT22;11197;53.110;8.468;2024-01-27T02:11:11;5.10;99.90
22065;DHT22;11197;53.110;8.468;2024-01-27T02:13:37;5.10;99.90
22065;DHT22;11197;53.110;8.468;2024-01-27T02:16:03;5.00;99.90
22065;DHT22;11197;53.110;8.468;2024-01-27T02:18:29;5.00;99.90
22065;DHT22;11197;53.110;8.468;2024-01-27T02:20:55;5.00;99.90
22065;DHT22;11197;53.110;8.468;2024-01-27T02:23:21;5.00;99.90
22065;DHT22;11197;53.110;8.468;2024-01-27T02:25:47;5.00;99.90
22065;DHT22;11197;53.110;8.468;2024-01-27T02:28:13;4.90;99.90
22065;DHT22;11197;53.110;8.468;2024-01-27T02:30:39;4.90;99.90
22065;DHT22;11197;53.110;8.468;2024-01-27T02:33:05;4.90;99.90
22065;DHT22;11197;53.110;8.468;2024-01-27T02:35:31;4.90;99.90
22065;DHT22;11197;53.110;8.468;2024-01-27T02:37:57;4.90;99.90
22065;DHT22;11197;53.110;8.468;2024-01-27T02:40:23;4.90;99.90
22065;DHT22;11197;53.110;8.468;2024-01-27T02:42:49;4.90;99.90
22065;DHT22;11197;53.110;8.468;2024-01-27T02:45:14;4.90;99.90
22065;DHT22;11197;53.110;8.468;2024-01-27T02:47:41;4.80;99.90
22065;DHT22;11197;53.110;8.468;2024-01-27T02:50:07;4.90;99.90
22065;DHT22;11197;53.110;8.468;2024-01-27T02:52:33;4.80;99.90
22065;DHT22;11197;53.110;8.468;2024-01-27T02:54:59;4.80;99.90
22065;DHT22;11197;53.110;8.468;2024-01-27T02:57:25;4.80;99.90
22065;DHT22;11197;53.110;8.468;2024-01-27T02:59:50;4.80;99.90
22065;DHT22;11197;53.110;8.468;2024-01-27T03:02:16;4.80;99.90
22065;DHT22;11197;53.110;8.468;2024-01-27T03:04:42;4.80;99.90
22065;DHT22;11197;53.110;8.468;2024-01-27T03:07:08;4.80;99.90
22065;DHT22;11197;53.110;8.468;2024-01-27T03:09:34;4.80;99.90
22065;DHT22;11197;53.110;8.468;2024-01-27T03:12:00;4.80;99.90
22065;DHT22;11197;53.110;8.468;2024-01-27T03:14:25;4.80;99.90
22065;DHT22;11197;53.110;8.468;2024-01-27T03:16:52;4.80;99.90
22065;DHT22;11197;53.110;8.468;2024-01-27T03:19:18;4.70;99.90
22065;DHT22;11197;53.110;8.468;2024-01-27T03:21:45;4.70;99.90
22065;DHT22;11197;53.110;8.468;2024-01-27T03:24:11;4.70;99.90
22065;DHT22;11197;53.110;8.468;2024-01-27T03:26:37;4.70;99.90
22065;DHT22;11197;53.110;8.468;2024-01-27T03:29:03;4.70;99.90
22065;DHT22;11197;53.110;8.468;2024-01-27T03:31:32;4.70;99.90
22065;DHT22;11197;53.110;8.468;2024-01-27T03:34:00;4.70;99.90
22065;DHT22;11197;53.110;8.468;2024-01-27T03:36:26;4.70;99.90
22065;DHT22;11197;53.110;8.468;2024-01-27T03:38:52;4.70;99.90
22065;DHT22;11197;53.110;8.468;2024-01-27T03:41:18;4.70;99.90
22065;DHT22;11197;53.110;8.468;2024-01-27T03:43:44;4.70;99.90
22065;DHT22;11197;53.110;8.468;2024-01-27T03:46:10;4.70;99.90
22065;DHT22;11197;53.110;8.468;2024-01-27T03:48:36;4.70;99.90
22065;DHT22;11197;53.110;8.468;2024-01-27T03:51:03;4.70;99.90
22065;DHT22;11197;53.110;8.468;2024-01-27T03:53:29;4.70;99.90
22065;DHT22;11197;53.110;8.468;2024-01-27T03:55:56;4.70;99.90
22065;DHT22;11197;53.110;8.468;2024-01-27T03:58:24;4.70;99.90
22065;DHT22;11197;53.110;8.468;2024-01-27T04:00:50;4.70;99.90
22065;DHT22;11197;53.110;8.468;2024-01-27T04:03:17;4.70;99.90
22065;DHT22;11197;53.110;8.468;2024-01-27T04:05:43;4.70;99.90
22065;DHT22;11197;53.110;8.468;2024-01-27T04:08:09;4.70;99.90
22065;DHT22;11197;53.110;8.468;2024-01-27T04:10:36;4.70;99.90
22065;DHT22;11197;53.110;8.468;2024-01-27T04:13:02;4.60;99.90
22065;DHT22;11197;53.110;8.468;2024-01-27T04:15:28;4.60;99.90
22065;DHT22;11197;53.110;8.468;2024-01-27T04:17:54;4.70;99.90
22065;DHT22;11197;53.110;8.468;2024-01-27T04:20:20;4.60;99.90
22065;DHT22;11197;53.110;8.468;2024-01-27T04:22:45;4.60;99.90
22065;DHT22;11197;53.110;8.468;2024-01-27T04:25:12;4.60;99.90
22065;DHT22;11197;53.110;8.468;2024-01-27T04:27:38;4.60;99.90
22065;DHT22;11197;53.110;8.468;2024-01-27T04:30:08;4.60;99.90
22065;DHT22;11197;53.110;8.468;2024-01-27T04:32:35;4.60;99.90
22065;DHT22;11197;53.110;8.468;2024-01-27T04:35:01;4.60;99.90
22065;DHT22;11197;53.110;8.468;2024-01-27T04:37:28;4.60;99.90
22065;DHT22;11197;53.110;8.468;2024-01-27T04:39:54;4.60;99.90
22065;DHT22;11197;53.110;8.468;2024-01-27T04:42:20;4.60;99.90
22065;DHT22;11197;53.110;8.468;2024-01-27T04:44:46;4.60;99.90
22065;DHT22;11197;53.110;8.468;2024-01-27T04:47:12;4.60;99.90
22065;DHT22;11197;53.110;8.468;2024-01-27T04:49:38;4.50;99.90
22065;DHT22;11197;53.110;8.468;2024-01-27T04:52:04;4.50;99.90
22065;DHT22;11197;53.110;8.468;2024-01-27T04:54:30;4.50;99.90
22065;DHT22;11197;53.110;8.468;2024-01-27T04:56:55;4.60;99.90
22065;DHT22;11197;53.110;8.468;2024-01-27T04:59:21;4.50;99.90
22065;DHT22;11197;53.110;8.468;2024-01-27T05:01:47;4.50;99.90
22065;DHT22;11197;53.110;8.468;2024-01-27T05:04:13;4.40;99.90
22065;DHT22;11197;53.110;8.468;2024-01-27T05:06:44;4.40;99.90
22065;DHT22;11197;53.110;8.468;2024-01-27T05:09:11;4.30;99.90
22065;DHT22;11197;53.110;8.468;2024-01-27T05:11:38;4.30;99.90
22065;DHT22;11197;53.110;8.468;2024-01-27T05:14:04;4.30;99.90
22065;DHT22;11197;53.110;8.468;2024-01-27T05:16:29;4.30;99.90
22065;DHT22;11197;53.110;8.468;2024-01-27T05:18:55;4.30;99.90
22065;DHT22;11197;53.110;8.468;2024-01-27T05:21:21;4.30;99.90
22065;DHT22;11197;53.110;8.468;2024-01-27T05:23:47;4.30;99.90
22065;DHT22;11197;53.110;8.468;2024-01-27T05:26:13;4.30;99.90
22065;DHT22;11197;53.110;8.468;2024-01-27T05:28:39;4.30;99.90
22065;DHT22;11197;53.110;8.468;2024-01-27T05:31:09;4.20;99.90
22065;DHT22;11197;53.110;8.468;2024-01-27T05:33:38;4.20;99.90
22065;DHT22;11197;53.110;8.468;2024-01-27T05:36:07;4.20;99.90
22065;DHT22;11197;53.110;8.468;2024-01-27T05:38:33;4.20;99.90
22065;DHT22;11197;53.110;8.468;2024-01-27T05:41:01;4.20;99.90
22065;DHT22;11197;53.110;8.468;2024-01-27T05:43:27;4.20;99.90
22065;DHT22;11197;53.110;8.468;2024-01-27T05:45:53;4.20;99.90
22065;DHT22;11197;53.110;8.468;2024-01-27T05:48:19;4.20;99.90
22065;DHT22;11197;53.110;8.468;2024-01-27T05:50:55;4.20;99.90
22065;DHT22;11197;53.110;8.468;2024-01-27T05:53:25;4.20;99.90
22065;DHT22;11197;53.110;8.468;2024-01-27T05:55:51;4.20;99.90
22065;DHT22;11197;53.110;8.468;2024-01-27T05:58:17;4.20;99.90
22065;DHT22;11197;53.110;8.468;2024-01-27T06:00:47;4.20;99.90
22065;DHT22;11197;53.110;8.468;2024-01-27T06:03:13;4.20;99.90
22065;DHT22;11197;53.110;8.468;2024-01-27T06:05:41;4.30;99.90
22065;DHT22;11197;53.110;8.468;2024-01-27T06:08:07;4.20;99.90
22065;DHT22;11197;53.110;8.468;2024-01-27T06:10:34;4.20;99.90
22065;DHT22;11197;53.110;8.468;2024-01-27T06:13:03;4.20;99.90
22065;DHT22;11197;53.110;8.468;2024-01-27T06:15:29;4.20;99.90
22065;DHT22;11197;53.110;8.468;2024-01-27T06:17:55;4.20;99.90
22065;DHT22;11197;53.110;8.468;2024-01-27T06:20:21;4.20;99.90
22065;DHT22;11197;53.110;8.468;2024-01-27T06:22:47;4.10;99.90
22065;DHT22;11197;53.110;8.468;2024-01-27T06:25:14;4.10;99.90
22065;DHT22;11197;53.110;8.468;2024-01-27T06:27:40;4.10;99.90
22065;DHT22;11197;53.110;8.468;2024-01-27T06:30:07;4.10;99.90
22065;DHT22;11197;53.110;8.468;2024-01-27T06:32:34;4.10;99.90
22065;DHT22;11197;53.110;8.468;2024-01-27T06:35:00;4.10;99.90
22065;DHT22;11197;53.110;8.468;2024-01-27T06:37:26;4.10;99.90
22065;DHT22;11197;53.110;8.468;2024-01-27T06:39:52;4.00;99.90
22065;DHT22;11197;53.110;8.468;2024-01-27T06:42:18;4.00;99.90
22065;DHT22;11197;53.110;8.468;2024-01-27T06:44:44;4.00;99.90
22065;DHT22;11197;53.110;8.468;2024-01-27T06:47:10;4.00;99.90
22065;DHT22;11197;53.110;8.468;2024-01-27T06:49:36;4.00;99.90
22065;DHT22;11197;53.110;8.468;2024-01-27T06:52:02;4.00;99.90
22065;DHT22;11197;53.110;8.468;2024-01-27T06:54:28;4.00;99.90
22065;DHT22;11197;53.110;8.468;2024-01-27T06:56:54;4.00;99.90
22065;DHT22;11197;53.110;8.468;2024-01-27T06:59:20;3.90;99.90
22065;DHT22;11197;53.110;8.468;2024-01-27T07:01:47;3.90;99.90
22065;DHT22;11197;53.110;8.468;2024-01-27T07:04:15;3.90;99.90
22065;DHT22;11197;53.110;8.468;2024-01-27T07:06:41;3.90;99.90
22065;DHT22;11197;53.110;8.468;2024-01-27T07:09:07;3.90;99.90
22065;DHT22;11197;53.110;8.468;2024-01-27T07:11:35;3.80;99.90
22065;DHT22;11197;53.110;8.468;2024-01-27T07:14:02;3.80;99.90
22065;DHT22;11197;53.110;8.468;2024-01-27T07:16:28;3.70;99.90
22065;DHT22;11197;53.110;8.468;2024-01-27T07:18:54;3.70;99.90
22065;DHT22;11197;53.110;8.468;2024-01-27T07:21:20;3.70;99.90
22065;DHT22;11197;53.110;8.468;2024-01-27T07:23:45;3.60;99.90
22065;DHT22;11197;53.110;8.468;2024-01-27T07:26:12;3.60;99.90
22065;DHT22;11197;53.110;8.468;2024-01-27T07:28:38;3.70;99.90
22065;DHT22;11197;53.110;8.468;2024-01-27T07:31:05;3.70;99.90
22065;DHT22;11197;53.110;8.468;2024-01-27T07:33:31;3.70;99.90
22065;DHT22;11197;53.110;8.468;2024-01-27T07:35:57;3.70;99.90
22065;DHT22;11197;53.110;8.468;2024-01-27T07:38:23;3.70;99.90
22065;DHT22;11197;53.110;8.468;2024-01-27T07:40:49;3.70;99.90
22065;DHT22;11197;53.110;8.468;2024-01-27T07:43:14;3.70;99.90
22065;DHT22;11197;53.110;8.468;2024-01-27T07:45:40;3.60;99.90
22065;DHT22;11197;53.110;8.468;2024-01-27T07:48:11;3.60;99.90
22065;DHT22;11197;53.110;8.468;2024-01-27T07:50:36;3.60;99.90
22065;DHT22;11197;53.110;8.468;2024-01-27T07:53:02;3.60;99.90
22065;DHT22;11197;53.110;8.468;2024-01-27T07:55:28;3.60;99.90
22065;DHT22;11197;53.110;8.468;2024-01-27T07:57:54;3.60;99.90
22065;DHT22;11197;53.110;8.468;2024-01-27T08:00:20;3.70;99.90
22065;DHT22;11197;53.110;8.468;2024-01-27T08:02:46;3.60;99.90
22065;DHT22;11197;53.110;8.468;2024-01-27T08:05:12;3.70;99.90
22065;DHT22;11197;53.110;8.468;2024-01-27T08:07:38;3.70;99.90
22065;DHT22;11197;53.110;8.468;2024-01-27T08:10:04;3.70;99.90
22065;DHT22;11197;53.110;8.468;2024-01-27T08:12:30;3.70;99.90
22065;DHT22;11197;53.110;8.468;2024-01-27T08:14:56;3.70;99.90
22065;DHT22;11197;53.110;8.468;2024-01-27T08:17:22;3.70;99.90
22065;DHT22;11197;53.110;8.468;2024-01-27T08:19:48;3.70;99.90
22065;DHT22;11197;53.110;8.468;2024-01-27T08:22:14;3.70;99.90
22065;DHT22;11197;53.110;8.468;2024-01-27T08:24:39;3.70;99.90
22065;DHT22;11197;53.110;8.468;2024-01-27T08:27:05;3.80;99.90
22065;DHT22;11197;53.110;8.468;2024-01-27T08:29:31;3.80;99.90
22065;DHT22;11197;53.110;8.468;2024-01-27T08:31:57;3.90;99.90
22065;DHT22;11197;53.110;8.468;2024-01-27T08:34:22;3.90;99.90
22065;DHT22;11197;53.110;8.468;2024-01-27T08:36:48;3.90;99.90
22065;DHT22;11197;53.110;8.468;2024-01-27T08:39:14;4.00;99.90
22065;DHT22;11197;53.110;8.468;2024-01-27T08:41:40;4.00;99.90
22065;DHT22;11197;53.110;8.468;2024-01-27T08:44:06;4.00;99.90
22065;DHT22;11197;53.110;8.468;2024-01-27T08:46:32;4.00;99.90
22065;DHT22;11197;53.110;8.468;2024-01-27T08:48:58;4.00;99.90
22065;DHT22;11197;53.110;8.468;2024-01-27T08:51:24;4.10;99.90
22065;DHT22;11197;53.110;8.468;2024-01-27T08:53:49;4.10;99.90
22065;DHT22;11197;53.110;8.468;2024-01-27T08:56:16;4.10;99.90
22065;DHT22;11197;53.110;8.468;2024-01-27T08:58:43;4.10;99.90
22065;DHT22;11197;53.110;8.468;2024-01-27T09:01:10;4.10;99.90
22065;DHT22;11197;53.110;8.468;2024-01-27T09:03:39;4.10;99.90
22065;DHT22;11197;53.110;8.468;2024-01-27T09:06:08;4.20;99.90
22065;DHT22;11197;53.110;8.468;2024-01-27T09:08:34;4.20;99.90
22065;DHT22;11197;53.110;8.468;2024-01-27T09:11:02;4.20;99.90
22065;DHT22;11197;53.110;8.468;2024-01-27T09:13:28;4.20;99.90
22065;DHT22;11197;53.110;8.468;2024-01-27T09:15:54;4.30;99.90
22065;DHT22;11197;53.110;8.468;2024-01-27T09:18:20;4.40;99.90
22065;DHT22;11197;53.110;8.468;2024-01-27T09:20:47;4.40;99.90
22065;DHT22;11197;53.110;8.468;2024-01-27T09:23:13;4.60;99.90
22065;DHT22;11197;53.110;8.468;2024-01-27T09:25:39;4.70;99.90
22065;DHT22;11197;53.110;8.468;2024-01-27T09:28:05;4.60;99.90
22065;DHT22;11197;53.110;8.468;2024-01-27T09:30:31;4.70;99.90
22065;DHT22;11197;53.110;8.468;2024-01-27T09:32:57;4.70;99.90
22065;DHT22;11197;53.110;8.468;2024-01-27T09:35:23;4.70;99.90
22065;DHT22;11197;53.110;8.468;2024-01-27T09:37:48;4.70;99.90
22065;DHT22;11197;53.110;8.468;2024-01-27T09:40:14;4.70;99.90
22065;DHT22;11197;53.110;8.468;2024-01-27T09:42:50;4.70;99.90
22065;DHT22;11197;53.110;8.468;2024-01-27T09:45:17;4.70;99.90
22065;DHT22;11197;53.110;8.468;2024-01-27T09:47:44;4.70;99.90
22065;DHT22;11197;53.110;8.468;2024-01-27T09:50:11;4.70;99.90
22065;DHT22;11197;53.110;8.468;2024-01-27T09:52:37;4.80;99.90
22065;DHT22;11197;53.110;8.468;2024-01-27T09:55:03;4.80;99.90
22065;DHT22;11197;53.110;8.468;2024-01-27T09:57:29;4.90;99.90
22065;DHT22;11197;53.110;8.468;2024-01-27T09:59:56;4.90;99.90
22065;DHT22;11197;53.110;8.468;2024-01-27T10:02:24;4.90;99.90
22065;DHT22;11197;53.110;8.468;2024-01-27T10:04:53;4.90;99.90
22065;DHT22;11197;53.110;8.468;2024-01-27T10:07:19;5.00;99.90
22065;DHT22;11197;53.110;8.468;2024-01-27T10:09:49;5.00;99.90
22065;DHT22;11197;53.110;8.468;2024-01-27T10:12:16;5.10;99.90
22065;DHT22;11197;53.110;8.468;2024-01-27T10:14:43;5.10;99.90
22065;DHT22;11197;53.110;8.468;2024-01-27T10:17:23;5.10;99.90
22065;DHT22;11197;53.110;8.468;2024-01-27T10:20:05;5.20;99.90
22065;DHT22;11197;53.110;8.468;2024-01-27T10:22:42;5.20;99.90
22065;DHT22;11197;53.110;8.468;2024-01-27T10:25:10;5.30;99.90
22065;DHT22;11197;53.110;8.468;2024-01-27T10:27:36;5.30;99.90
22065;DHT22;11197;53.110;8.468;2024-01-27T10:30:03;5.50;99.90
22065;DHT22;11197;53.110;8.468;2024-01-27T10:32:29;6.40;99.90
22065;DHT22;11197;53.110;8.468;2024-01-27T10:35:09;6.90;99.90
22065;DHT22;11197;53.110;8.468;2024-01-27T10:37:43;7.10;99.90
22065;DHT22;11197;53.110;8.468;2024-01-27T10:40:09;7.10;99.90
22065;DHT22;11197;53.110;8.468;2024-01-27T10:42:36;7.00;99.90
22065;DHT22;11197;53.110;8.468;2024-01-27T10:45:03;6.70;99.90
22065;DHT22;11197;53.110;8.468;2024-01-27T10:47:31;6.60;99.90
22065;DHT22;11197;53.110;8.468;2024-01-27T10:49:58;6.50;99.90
22065;DHT22;11197;53.110;8.468;2024-01-27T10:52:29;6.40;99.90
22065;DHT22;11197;53.110;8.468;2024-01-27T10:55:04;6.30;99.90
22065;DHT22;11197;53.110;8.468;2024-01-27T10:57:33;6.20;99.90
22065;DHT22;11197;53.110;8.468;2024-01-27T11:00:01;6.20;99.90
22065;DHT22;11197;53.110;8.468;2024-01-27T11:02:33;6.20;99.90
22065;DHT22;11197;53.110;8.468;2024-01-27T11:05:02;6.20;99.90
22065;DHT22;11197;53.110;8.468;2024-01-27T11:07:32;6.10;99.90
22065;DHT22;11197;53.110;8.468;2024-01-27T11:09:57;6.10;99.90
22065;DHT22;11197;53.110;8.468;2024-01-27T11:12:24;6.20;99.90
22065;DHT22;11197;53.110;8.468;2024-01-27T11:14:51;6.20;99.90
22065;DHT22;11197;53.110;8.468;2024-01-27T11:17:18;6.10;99.90
22065;DHT22;11197;53.110;8.468;2024-01-27T11:19:49;6.10;99.90
22065;DHT22;11197;53.110;8.468;2024-01-27T11:22:29;6.20;99.90
22065;DHT22;11197;53.110;8.468;2024-01-27T11:25:17;6.20;99.90
22065;DHT22;11197;53.110;8.468;2024-01-27T11:27:45;6.10;99.90
22065;DHT22;11197;53.110;8.468;2024-01-27T11:30:29;6.10;99.90
22065;DHT22;11197;53.110;8.468;2024-01-27T11:32:56;6.20;99.90
22065;DHT22;11197;53.110;8.468;2024-01-27T11:35:23;6.20;99.90
22065;DHT22;11197;53.110;8.468;2024-01-27T11:37:49;6.20;99.90
22065;DHT22;11197;53.110;8.468;2024-01-27T11:40:15;6.20;99.90
22065;DHT22;11197;53.110;8.468;2024-01-27T11:42:41;6.30;99.90
22065;DHT22;11197;53.110;8.468;2024-01-27T11:45:10;6.30;99.90
22065;DHT22;11197;53.110;8.468;2024-01-27T11:47:37;6.30;99.90
22065;DHT22;11197;53.110;8.468;2024-01-27T11:50:03;6.30;99.90
22065;DHT22;11197;53.110;8.468;2024-01-27T11:52:29;6.40;99.90
22065;DHT22;11197;53.110;8.468;2024-01-27T11:55:00;6.40;99.90
22065;DHT22;11197;53.110;8.468;2024-01-27T11:57:26;6.40;99.90
22065;DHT22;11197;53.110;8.468;2024-01-27T11:59:53;6.50;99.90
22065;DHT22;11197;53.110;8.468;2024-01-27T12:02:20;6.50;99.90
22065;DHT22;11197;53.110;8.468;2024-01-27T12:04:47;6.50;99.90
22065;DHT22;11197;53.110;8.468;2024-01-27T12:07:14;6.50;99.90
22065;DHT22;11197;53.110;8.468;2024-01-27T12:09:40;6.60;99.90
22065;DHT22;11197;53.110;8.468;2024-01-27T12:12:08;6.50;99.90
22065;DHT22;11197;53.110;8.468;2024-01-27T12:14:41;6.60;99.90
22065;DHT22;11197;53.110;8.468;2024-01-27T12:17:09;6.60;99.90
22065;DHT22;11197;53.110;8.468;2024-01-27T12:19:45;6.60;99.90
22065;DHT22;11197;53.110;8.468;2024-01-27T12:24:47;6.70;99.90
22065;DHT22;11197;53.110;8.468;2024-01-27T12:27:13;6.70;99.90
22065;DHT22;11197;53.110;8.468;2024-01-27T12:29:41;6.70;99.90
22065;DHT22;11197;53.110;8.468;2024-01-27T12:32:07;6.70;99.90
22065;DHT22;11197;53.110;8.468;2024-01-27T12:34:33;6.70;99.90
22065;DHT22;11197;53.110;8.468;2024-01-27T12:36:59;6.80;99.90
22065;DHT22;11197;53.110;8.468;2024-01-27T12:39:26;6.80;99.90
22065;DHT22;11197;53.110;8.468;2024-01-27T12:41:51;6.80;99.90
22065;DHT22;11197;53.110;8.468;2024-01-27T12:44:17;6.90;99.90
22065;DHT22;11197;53.110;8.468;2024-01-27T12:46:43;6.90;99.90
22065;DHT22;11197;53.110;8.468;2024-01-27T12:49:09;6.90;99.90
22065;DHT22;11197;53.110;8.468;2024-01-27T12:51:35;6.90;99.90
22065;DHT22;11197;53.110;8.468;2024-01-27T12:54:01;6.90;99.90
22065;DHT22;11197;53.110;8.468;2024-01-27T12:56:26;7.00;99.90
22065;DHT22;11197;53.110;8.468;2024-01-27T12:58:52;7.00;99.90
22065;DHT22;11197;53.110;8.468;2024-01-27T13:01:18;7.10;99.90
22065;DHT22;11197;53.110;8.468;2024-01-27T13:03:44;7.10;99.90
22065;DHT22;11197;53.110;8.468;2024-01-27T13:06:10;7.10;99.90
22065;DHT22;11197;53.110;8.468;2024-01-27T13:08:36;7.30;99.90
22065;DHT22;11197;53.110;8.468;2024-01-27T13:11:02;7.80;99.90
22065;DHT22;11197;53.110;8.468;2024-01-27T13:13:29;7.90;99.90
22065;DHT22;11197;53.110;8.468;2024-01-27T13:15:55;8.00;99.90
22065;DHT22;11197;53.110;8.468;2024-01-27T13:18:20;7.90;99.90
22065;DHT22;11197;53.110;8.468;2024-01-27T13:20:46;7.90;99.90
22065;DHT22;11197;53.110;8.468;2024-01-27T13:23:12;7.80;99.90
22065;DHT22;11197;53.110;8.468;2024-01-27T13:25:38;7.70;99.90
22065;DHT22;11197;53.110;8.468;2024-01-27T13:28:04;7.70;99.90
22065;DHT22;11197;53.110;8.468;2024-01-27T13:30:32;7.60;99.90
22065;DHT22;11197;53.110;8.468;2024-01-27T13:32:58;7.60;99.90
22065;DHT22;11197;53.110;8.468;2024-01-27T13:35:24;7.60;99.90
22065;DHT22;11197;53.110;8.468;2024-01-27T13:37:50;7.50;99.90
22065;DHT22;11197;53.110;8.468;2024-01-27T13:40:16;7.50;99.90
22065;DHT22;11197;53.110;8.468;2024-01-27T13:42:42;7.90;99.90
22065;DHT22;11197;53.110;8.468;2024-01-27T13:45:08;8.10;99.90
22065;DHT22;11197;53.110;8.468;2024-01-27T13:47:34;8.20;99.90
22065;DHT22;11197;53.110;8.468;2024-01-27T13:50:00;8.10;99.90
22065;DHT22;11197;53.110;8.468;2024-01-27T13:52:26;8.10;99.90
22065;DHT22;11197;53.110;8.468;2024-01-27T13:54:54;8.00;99.90
22065;DHT22;11197;53.110;8.468;2024-01-27T13:57:21;8.00;99.90
22065;DHT22;11197;53.110;8.468;2024-01-27T13:59:47;7.90;99.90
22065;DHT22;11197;53.110;8.468;2024-01-27T14:02:13;7.90;99.90
22065;DHT22;11197;53.110;8.468;2024-01-27T14:04:39;7.80;99.90
22065;DHT22;11197;53.110;8.468;2024-01-27T14:07:05;7.80;99.90
22065;DHT22;11197;53.110;8.468;2024-01-27T14:09:33;7.80;99.90
22065;DHT22;11197;53.110;8.468;2024-01-27T14:12:00;7.70;99.90
22065;DHT22;11197;53.110;8.468;2024-01-27T14:14:26;7.70;99.90
22065;DHT22;11197;53.110;8.468;2024-01-27T14:16:52;7.70;99.90
22065;DHT22;11197;53.110;8.468;2024-01-27T14:19:19;7.70;99.90
22065;DHT22;11197;53.110;8.468;2024-01-27T14:21:45;7.70;99.90
22065;DHT22;11197;53.110;8.468;2024-01-27T14:24:12;7.70;99.90
22065;DHT22;11197;53.110;8.468;2024-01-27T14:26:37;7.70;99.90
22065;DHT22;11197;53.110;8.468;2024-01-27T14:29:04;7.70;99.90
22065;DHT22;11197;53.110;8.468;2024-01-27T14:31:30;7.70;99.90
22065;DHT22;11197;53.110;8.468;2024-01-27T14:33:57;7.70;99.90
22065;DHT22;11197;53.110;8.468;2024-01-27T14:36:23;7.60;99.90
22065;DHT22;11197;53.110;8.468;2024-01-27T14:38:51;7.60;99.90
22065;DHT22;11197;53.110;8.468;2024-01-27T14:41:17;7.70;99.90
22065;DHT22;11197;53.110;8.468;2024-01-27T14:43:43;7.60;99.90
22065;DHT22;11197;53.110;8.468;2024-01-27T14:46:09;7.60;99.90
22065;DHT22;11197;53.110;8.468;2024-01-27T14:48:35;7.60;99.90
22065;DHT22;11197;53.110;8.468;2024-01-27T14:51:01;7.60;99.90
22065;DHT22;11197;53.110;8.468;2024-01-27T14:53:29;7.50;99.90
22065;DHT22;11197;53.110;8.468;2024-01-27T14:55:55;7.60;99.90
22065;DHT22;11197;53.110;8.468;2024-01-27T14:58:22;7.50;99.90
22065;DHT22;11197;53.110;8.468;2024-01-27T15:00:49;7.50;99.90
22065;DHT22;11197;53.110;8.468;2024-01-27T15:03:21;7.50;99.90
22065;DHT22;11197;53.110;8.468;2024-01-27T15:05:49;7.50;99.90
22065;DHT22;11197;53.110;8.468;2024-01-27T15:08:16;7.50;99.90
22065;DHT22;11197;53.110;8.468;2024-01-27T15:10:42;7.50;99.90
22065;DHT22;11197;53.110;8.468;2024-01-27T15:13:11;7.40;99.90
22065;DHT22;11197;53.110;8.468;2024-01-27T15:15:38;7.40;99.90
22065;DHT22;11197;53.110;8.468;2024-01-27T15:18:05;7.40;99.90
22065;DHT22;11197;53.110;8.468;2024-01-27T15:20:32;7.40;99.90
22065;DHT22;11197;53.110;8.468;2024-01-27T15:22:58;7.40;99.90
22065;DHT22;11197;53.110;8.468;2024-01-27T15:25:24;7.40;99.90
22065;DHT22;11197;53.110;8.468;2024-01-27T15:27:50;7.40;99.90
22065;DHT22;11197;53.110;8.468;2024-01-27T15:30:17;7.40;99.90
22065;DHT22;11197;53.110;8.468;2024-01-27T15:32:47;7.40;99.90
22065;DHT22;11197;53.110;8.468;2024-01-27T15:35:13;7.30;99.90
22065;DHT22;11197;53.110;8.468;2024-01-27T15:37:39;7.30;99.90
22065;DHT22;11197;53.110;8.468;2024-01-27T15:40:08;7.20;99.90
22065;DHT22;11197;53.110;8.468;2024-01-27T15:42:40;7.20;99.90
22065;DHT22;11197;53.110;8.468;2024-01-27T15:45:06;7.20;99.90
22065;DHT22;11197;53.110;8.468;2024-01-27T15:47:32;7.10;99.90